createdAt,value
2018-07-11T00:00:57.276Z,2.47
2018-07-11T00:03:30.354Z,2.90
2018-07-11T00:05:57.811Z,2.87
2018-07-11T00:08:25.271Z,3.67
2018-07-11T00:10:52.727Z,3.67
2018-07-11T00:13:20.165Z,2.80
2018-07-11T00:15:47.622Z,2.52
2018-07-11T00:18:15.158Z,2.90
2018-07-11T00:20:42.640Z,2.87
2018-07-11T00:23:10.095Z,3.83
2018-07-11T00:25:37.677Z,2.62
2018-07-11T00:28:05.117Z,2.80
2018-07-11T00:30:32.591Z,2.17
2018-07-11T00:33:00.174Z,2.45
2018-07-11T00:35:27.629Z,3.00
2018-07-11T00:37:55.190Z,2.90
2018-07-11T00:40:22.730Z,2.52
2018-07-11T00:42:50.384Z,2.55
2018-07-11T00:45:17.857Z,3.37
2018-07-11T00:47:45.371Z,3.30
2018-07-11T00:50:12.783Z,2.98
2018-07-11T00:52:40.237Z,3.15
2018-07-11T00:55:07.703Z,2.40
2018-07-11T00:57:35.477Z,4.00
2018-07-11T01:00:02.971Z,3.17
2018-07-11T01:02:30.432Z,3.65
2018-07-11T01:04:57.914Z,3.40
2018-07-11T01:07:25.397Z,3.52
2018-07-11T01:09:52.869Z,3.90
2018-07-11T01:12:20.325Z,4.00
2018-07-11T01:14:47.998Z,4.10
2018-07-11T01:17:21.217Z,4.42
2018-07-11T01:19:48.774Z,5.37
2018-07-11T01:22:16.214Z,4.40
2018-07-11T01:24:43.670Z,4.95
2018-07-11T01:27:11.097Z,4.75
2018-07-11T01:29:38.529Z,5.30
2018-07-11T01:32:06.045Z,5.08
2018-07-11T01:34:33.577Z,6.05
2018-07-11T01:37:01.199Z,5.08
2018-07-11T01:39:28.704Z,5.85
2018-07-11T01:41:56.162Z,5.92
2018-07-11T01:44:23.676Z,5.03
2018-07-11T01:46:51.982Z,4.78
2018-07-11T01:49:19.515Z,4.53
2018-07-11T01:51:52.588Z,4.72
2018-07-11T01:54:20.050Z,5.30
2018-07-11T01:56:47.504Z,5.08
2018-07-11T01:59:15.037Z,5.20
2018-07-11T02:01:42.950Z,5.40
2018-07-11T02:04:10.827Z,5.22
2018-07-11T02:06:38.357Z,5.75
2018-07-11T02:09:05.940Z,6.20
2018-07-11T02:11:33.471Z,6.10
2018-07-11T02:14:00.959Z,5.37
2018-07-11T02:16:28.506Z,6.22
2018-07-11T02:18:55.988Z,6.03
2018-07-11T02:21:23.810Z,6.25
2018-07-11T02:23:51.237Z,6.62
2018-07-11T02:26:18.727Z,5.83
2018-07-11T02:28:46.199Z,6.45
2018-07-11T02:31:13.657Z,6.58
2018-07-11T02:33:41.106Z,6.85
2018-07-11T02:36:08.638Z,5.95
2018-07-11T02:38:36.086Z,8.40
2018-07-11T02:41:03.515Z,7.30
2018-07-11T02:43:30.975Z,8.48
2018-07-11T02:45:58.476Z,6.83
2018-07-11T02:48:25.922Z,7.95
2018-07-11T02:50:53.424Z,8.08
2018-07-11T02:53:22.407Z,8.20
2018-07-11T02:55:50.820Z,7.42
2018-07-11T02:58:18.284Z,7.80
2018-07-11T03:00:46.174Z,7.50
2018-07-11T03:03:13.963Z,7.95
2018-07-11T03:05:41.583Z,7.53
2018-07-11T03:08:09.420Z,7.25
2018-07-11T03:10:37.022Z,9.18
2018-07-11T03:13:04.798Z,8.05
2018-07-11T03:15:32.217Z,6.58
2018-07-11T03:17:59.655Z,6.40
2018-07-11T03:20:27.095Z,6.12
2018-07-11T03:22:54.522Z,7.35
2018-07-11T03:25:21.930Z,7.42
2018-07-11T03:27:49.478Z,6.78
2018-07-11T03:30:16.902Z,6.90
2018-07-11T03:32:44.326Z,6.10
2018-07-11T03:35:11.763Z,6.12
2018-07-11T03:37:39.314Z,6.72
2018-07-11T03:40:06.786Z,6.40
2018-07-11T03:42:34.269Z,6.60
2018-07-11T03:45:01.767Z,5.45
2018-07-11T03:47:29.208Z,6.17
2018-07-11T03:49:56.635Z,6.10
2018-07-11T03:52:24.134Z,6.08
2018-07-11T03:54:51.565Z,6.17
2018-07-11T03:57:18.990Z,5.72
2018-07-11T03:59:46.384Z,6.78
2018-07-11T04:02:13.794Z,6.67
2018-07-11T04:04:41.243Z,5.72
2018-07-11T04:07:08.631Z,6.12
2018-07-11T04:09:36.057Z,5.78
2018-07-11T04:12:03.520Z,6.62
2018-07-11T04:14:30.966Z,6.10
2018-07-11T04:16:58.436Z,5.97
2018-07-11T04:19:25.880Z,6.45
2018-07-11T04:21:53.469Z,6.25
2018-07-11T04:24:20.902Z,5.67
2018-07-11T04:26:48.399Z,6.22
2018-07-11T04:29:15.864Z,6.60
2018-07-11T04:31:43.354Z,6.42
2018-07-11T04:34:10.835Z,5.75
2018-07-11T04:36:38.305Z,6.87
2018-07-11T04:39:05.726Z,5.78
2018-07-11T04:41:33.182Z,6.75
2018-07-11T04:44:00.625Z,6.25
2018-07-11T04:46:28.072Z,5.30
2018-07-11T04:48:56.632Z,5.45
2018-07-11T04:51:24.234Z,5.97
2018-07-11T04:53:53.070Z,5.87
2018-07-11T04:56:21.402Z,6.92
2018-07-11T04:58:48.899Z,6.97
2018-07-11T05:01:17.593Z,5.95
2018-07-11T05:03:45.082Z,6.42
2018-07-11T05:06:12.569Z,5.80
2018-07-11T05:08:39.966Z,7.12
2018-07-11T05:11:07.519Z,7.05
2018-07-11T05:13:34.949Z,6.12
2018-07-11T05:16:10.222Z,8.23
2018-07-11T05:18:37.642Z,6.17
2018-07-11T05:21:05.077Z,6.87
2018-07-11T05:23:32.570Z,6.55
2018-07-11T05:25:59.989Z,6.25
2018-07-11T05:28:27.451Z,6.33
2018-07-11T05:30:54.890Z,6.90
2018-07-11T05:33:22.305Z,7.47
2018-07-11T05:35:49.734Z,6.97
2018-07-11T05:38:18.454Z,6.42
2018-07-11T05:40:46.104Z,5.72
2018-07-11T05:43:13.556Z,4.87
2018-07-11T05:45:41.046Z,6.05
2018-07-11T05:48:08.572Z,6.92
2018-07-11T05:50:36.062Z,6.08
2018-07-11T05:53:03.528Z,6.95
2018-07-11T05:55:31.001Z,7.00
2018-07-11T05:57:58.476Z,5.92
2018-07-11T06:00:25.986Z,6.17
2018-07-11T06:02:53.447Z,5.97
2018-07-11T06:05:21.477Z,6.45
2018-07-11T06:07:49.093Z,6.35
2018-07-11T06:10:16.734Z,6.10
2018-07-11T06:12:44.367Z,6.08
2018-07-11T06:15:11.831Z,7.00
2018-07-11T06:17:39.342Z,7.53
2018-07-11T06:20:07.319Z,6.75
2018-07-11T06:22:35.543Z,6.42
2018-07-11T06:25:03.044Z,6.58
2018-07-11T06:27:30.538Z,6.42
2018-07-11T06:29:57.971Z,5.58
2018-07-11T06:32:25.495Z,4.60
2018-07-11T06:34:52.973Z,4.40
2018-07-11T06:37:20.408Z,4.60
2018-07-11T06:39:47.853Z,4.87
2018-07-11T06:42:15.359Z,4.75
2018-07-11T06:44:42.934Z,4.40
2018-07-11T06:47:12.494Z,3.85
2018-07-11T06:49:40.162Z,4.42
2018-07-11T06:52:07.588Z,4.03
2018-07-11T06:54:35.161Z,3.70
2018-07-11T06:57:02.694Z,2.83
2018-07-11T06:59:30.253Z,3.20
2018-07-11T07:01:57.721Z,2.60
2018-07-11T07:04:25.153Z,2.67
2018-07-11T07:06:52.775Z,2.33
2018-07-11T07:09:20.274Z,1.85
2018-07-11T07:11:47.718Z,2.08
2018-07-11T07:14:15.309Z,1.80
2018-07-11T07:16:43.063Z,2.15
2018-07-11T07:19:10.796Z,2.30
2018-07-11T07:21:38.218Z,1.50
2018-07-11T07:24:05.768Z,1.70
2018-07-11T07:26:33.195Z,1.95
2018-07-11T07:29:00.799Z,1.50
2018-07-11T07:31:28.385Z,1.60
2018-07-11T07:33:58.885Z,0.85
2018-07-11T07:36:26.466Z,1.15
2018-07-11T07:38:53.920Z,1.32
2018-07-11T07:41:21.355Z,0.85
2018-07-11T07:43:48.807Z,1.12
2018-07-11T07:46:16.281Z,1.47
2018-07-11T07:48:43.802Z,1.80
2018-07-11T07:51:11.313Z,1.72
2018-07-11T07:53:38.829Z,1.80
2018-07-11T07:56:06.378Z,2.02
2018-07-11T07:58:33.876Z,2.17
2018-07-11T08:01:01.396Z,1.85
2018-07-11T08:03:28.876Z,1.75
2018-07-11T08:05:56.278Z,1.15
2018-07-11T08:08:23.699Z,1.67
2018-07-11T08:10:51.171Z,1.77
2018-07-11T08:13:18.590Z,2.10
2018-07-11T08:15:46.041Z,1.90
2018-07-11T08:18:13.444Z,1.52
2018-07-11T08:20:40.901Z,1.60
2018-07-11T08:23:15.218Z,2.00
2018-07-11T08:25:49.110Z,1.57
2018-07-11T08:28:24.042Z,1.50
2018-07-11T08:30:57.114Z,1.30
2018-07-11T08:33:30.151Z,1.45
2018-07-11T08:48:57.108Z,1.50
2018-07-11T08:51:29.315Z,0.98
2018-07-11T08:54:02.539Z,1.22
2018-07-11T08:56:36.123Z,1.07
2018-07-11T08:59:08.784Z,1.07
2018-07-11T09:01:42.449Z,1.10
2018-07-11T10:00:39.507Z,1.15
2018-07-11T10:03:06.978Z,0.98
2018-07-11T10:05:34.481Z,0.80
2018-07-11T10:08:02.891Z,1.30
2018-07-11T10:10:30.290Z,1.02
2018-07-11T10:12:58.083Z,1.12
2018-07-11T10:15:25.511Z,1.10
2018-07-11T10:17:53.045Z,0.80
2018-07-11T10:20:20.478Z,1.32
2018-07-11T10:22:48.158Z,0.95
2018-07-11T10:25:15.590Z,0.60
2018-07-11T10:27:43.342Z,0.90
2018-07-11T10:30:11.032Z,1.20
2018-07-11T10:32:38.526Z,1.00
2018-07-11T10:35:13.686Z,0.95
2018-07-11T10:37:41.167Z,0.75
2018-07-11T10:40:08.677Z,0.85
2018-07-11T10:42:36.159Z,0.78
2018-07-11T10:45:03.687Z,0.90
2018-07-11T10:47:31.114Z,0.78
2018-07-11T10:50:02.104Z,0.80
2018-07-11T10:52:29.696Z,0.88
2018-07-11T10:54:57.178Z,0.68
2018-07-11T10:57:24.935Z,0.72
2018-07-11T10:59:52.411Z,0.82
2018-07-11T11:02:21.890Z,0.80
2018-07-11T11:04:49.424Z,0.80
2018-07-11T11:07:16.835Z,0.72
2018-07-11T11:09:44.262Z,1.20
2018-07-11T11:12:11.746Z,1.22
2018-07-11T11:14:39.269Z,0.72
2018-07-11T11:17:06.786Z,0.88
2018-07-11T11:19:34.222Z,0.50
2018-07-11T11:22:02.040Z,0.40
2018-07-11T11:24:29.462Z,0.80
2018-07-11T11:26:56.928Z,0.57
2018-07-11T11:29:24.562Z,0.90
2018-07-11T11:31:52.047Z,0.80
2018-07-11T11:34:19.572Z,0.65
2018-07-11T11:36:47.042Z,0.90
2018-07-11T11:39:14.473Z,0.75
2018-07-11T11:41:42.021Z,0.90
2018-07-11T11:44:09.423Z,0.93
2018-07-11T11:46:36.950Z,0.75
2018-07-11T11:49:04.442Z,0.82
2018-07-11T11:51:32.150Z,0.57
2018-07-11T11:53:59.954Z,0.42
2018-07-11T11:56:27.462Z,0.53
2018-07-11T11:58:54.957Z,0.68
2018-07-11T12:01:22.406Z,0.72
2018-07-11T12:03:49.948Z,0.95
2018-07-11T12:06:17.435Z,0.80
2018-07-11T12:08:44.887Z,0.70
2018-07-11T12:11:12.565Z,0.88
2018-07-11T12:13:39.978Z,0.98
2018-07-11T12:16:07.435Z,1.02
2018-07-11T12:18:34.986Z,1.10
2018-07-11T12:21:02.484Z,1.02
2018-07-11T12:23:29.905Z,1.05
2018-07-11T12:25:58.918Z,1.30
2018-07-11T12:28:26.399Z,1.00
2018-07-11T12:30:54.001Z,0.93
2018-07-11T12:33:21.475Z,0.82
2018-07-11T12:35:49.115Z,1.17
2018-07-11T12:38:16.666Z,0.80
2018-07-11T12:40:44.486Z,0.55
2018-07-11T12:43:12.052Z,0.65
2018-07-11T12:45:39.723Z,0.60
2018-07-11T12:48:12.909Z,1.25
2018-07-11T12:50:40.426Z,1.17
2018-07-11T12:53:08.078Z,0.85
2018-07-11T12:55:35.589Z,1.35
2018-07-11T12:58:03.039Z,1.25
2018-07-11T13:00:30.658Z,1.82
2018-07-11T13:02:58.248Z,2.00
2018-07-11T13:05:25.842Z,1.70
2018-07-11T13:07:53.614Z,1.87
2018-07-11T13:10:21.067Z,1.98
2018-07-11T13:12:48.489Z,1.95
2018-07-11T13:15:15.930Z,1.42
2018-07-11T13:17:44.117Z,1.90
2018-07-11T13:20:11.780Z,1.20
2018-07-11T13:22:39.252Z,1.72
2018-07-11T13:25:06.863Z,2.00
2018-07-11T13:27:34.323Z,1.57
2018-07-11T13:30:01.872Z,1.22
2018-07-11T13:32:30.013Z,1.52
2018-07-11T13:34:57.505Z,1.95
2018-07-11T13:37:25.418Z,1.85
2018-07-11T13:39:52.847Z,1.25
2018-07-11T13:42:21.384Z,2.08
2018-07-11T13:44:48.802Z,1.05
2018-07-11T13:47:21.927Z,1.67
2018-07-11T13:49:49.469Z,1.37
2018-07-11T13:52:17.215Z,1.15
2018-07-11T13:54:44.732Z,1.67
2018-07-11T13:57:12.168Z,1.20
2018-07-11T13:59:39.806Z,1.50
2018-07-11T14:02:07.326Z,1.45
2018-07-11T14:04:34.734Z,1.40
2018-07-11T14:07:02.238Z,1.65
2018-07-11T14:09:29.743Z,1.62
2018-07-11T14:11:57.254Z,1.72
2018-07-11T14:14:24.697Z,1.30
2018-07-11T14:16:52.326Z,1.98
2018-07-11T14:19:19.933Z,1.95
2018-07-11T14:21:47.456Z,1.77
2018-07-11T14:24:15.035Z,1.50
2018-07-11T14:26:42.642Z,1.50
2018-07-11T14:29:10.153Z,3.60
2018-07-11T14:31:37.738Z,2.83
2018-07-11T14:34:06.931Z,2.90
2018-07-11T14:36:35.040Z,2.30
2018-07-11T14:39:04.006Z,2.67
2018-07-11T14:41:31.456Z,2.83
2018-07-11T14:43:59.579Z,3.22
2018-07-11T14:46:28.726Z,2.87
2018-07-11T14:48:56.471Z,2.87
2018-07-11T14:51:24.114Z,3.08
2018-07-11T14:53:52.372Z,2.35
2018-07-11T14:56:19.932Z,4.25
2018-07-11T14:58:49.582Z,3.15
2018-07-11T15:01:17.127Z,4.60
2018-07-11T15:03:44.623Z,3.87
2018-07-11T15:06:13.031Z,3.50
2018-07-11T15:08:40.524Z,3.62
2018-07-11T15:11:08.346Z,3.75
2018-07-11T15:13:35.793Z,4.40
2018-07-11T15:16:03.234Z,3.58
2018-07-11T15:18:30.738Z,3.08
2018-07-11T15:20:58.349Z,3.77
2018-07-11T15:23:25.867Z,3.12
2018-07-11T15:25:53.379Z,3.70
2018-07-11T15:28:20.978Z,3.12
2018-07-11T15:30:48.481Z,2.70
2018-07-11T15:33:16.132Z,3.52
2018-07-11T15:35:43.940Z,3.98
2018-07-11T15:38:11.750Z,3.80
2018-07-11T15:40:39.251Z,3.08
2018-07-11T15:43:06.866Z,3.15
2018-07-11T15:45:34.396Z,3.67
2018-07-11T15:48:02.279Z,3.30
2018-07-11T15:50:31.647Z,3.15
2018-07-11T15:53:00.145Z,3.17
2018-07-11T15:55:29.309Z,4.03
2018-07-11T15:57:57.868Z,3.33
2018-07-11T16:00:29.510Z,4.10
2018-07-11T16:02:57.482Z,3.42
2018-07-11T16:05:26.903Z,3.67
2018-07-11T16:08:00.162Z,2.15
2018-07-11T16:10:29.210Z,2.65
2018-07-11T16:12:56.699Z,3.15
2018-07-11T16:15:27.068Z,4.00
2018-07-11T16:17:54.737Z,3.70
2018-07-11T16:20:23.030Z,3.50
2018-07-11T16:22:50.562Z,3.30
2018-07-11T16:25:18.642Z,2.70
2018-07-11T16:27:46.388Z,3.92
2018-07-11T16:30:14.878Z,3.00
2018-07-11T16:32:44.650Z,3.98
2018-07-11T16:35:12.370Z,2.98
2018-07-11T16:37:40.854Z,3.25
2018-07-11T16:40:08.565Z,4.15
2018-07-11T16:42:37.854Z,3.87
2018-07-11T16:45:05.465Z,3.10
2018-07-11T16:47:33.854Z,3.72
2018-07-11T16:50:01.629Z,4.75
2018-07-11T16:52:30.498Z,3.42
2018-07-11T16:54:58.794Z,3.50
2018-07-11T16:57:38.361Z,3.95
2018-07-11T17:00:07.726Z,4.15
2018-07-11T17:02:37.029Z,3.75
2018-07-11T17:05:08.628Z,4.85
2018-07-11T17:07:45.631Z,4.28
2018-07-11T17:10:13.870Z,4.47
2018-07-11T17:12:42.580Z,4.72
2018-07-11T17:15:10.748Z,4.83
2018-07-11T17:17:39.498Z,5.00
2018-07-11T17:20:10.705Z,4.78
2018-07-11T17:22:45.306Z,4.80
2018-07-11T17:25:13.843Z,3.60
2018-07-11T17:27:45.003Z,4.62
2018-07-11T17:30:14.879Z,4.87
2018-07-11T17:32:43.493Z,5.03
2018-07-11T17:35:11.268Z,4.72
2018-07-11T17:37:45.705Z,4.47
2018-07-11T17:40:13.402Z,5.67
2018-07-11T17:42:41.770Z,5.25
2018-07-11T17:45:16.035Z,4.50
2018-07-11T17:47:46.870Z,5.33
2018-07-11T17:50:14.419Z,4.70
2018-07-11T17:53:45.083Z,5.42
2018-07-11T17:56:13.486Z,5.50
2018-07-11T17:58:58.926Z,5.65
2018-07-11T18:01:28.387Z,5.87
2018-07-11T18:04:01.306Z,5.50
2018-07-11T18:06:36.151Z,4.90
2018-07-11T18:09:08.067Z,4.75
2018-07-11T18:11:41.359Z,5.40
2018-07-11T18:14:10.815Z,4.95
2018-07-11T18:16:42.350Z,5.78
2018-07-11T18:19:28.670Z,5.47
2018-07-11T18:21:58.615Z,4.87
2018-07-11T18:24:33.155Z,5.78
2018-07-11T18:27:05.439Z,4.62
2018-07-11T18:29:38.748Z,5.08
2018-07-11T18:32:12.018Z,4.40
2018-07-11T18:34:45.626Z,4.42
2018-07-11T18:37:23.736Z,4.30
2018-07-11T18:39:59.083Z,3.47
2018-07-11T18:42:32.956Z,4.10
2018-07-11T18:47:09.605Z,3.72
2018-07-11T18:49:41.546Z,5.20
2018-07-11T18:52:12.695Z,4.62
2018-07-11T18:56:49.319Z,5.65
2018-07-11T18:59:29.516Z,5.33
2018-07-11T19:02:03.894Z,3.92
2018-07-11T19:06:40.242Z,4.30
2018-07-11T19:09:09.946Z,4.15
2018-07-11T19:11:46.947Z,4.08
2018-07-11T19:14:20.857Z,3.92
2018-07-11T19:16:54.467Z,4.72
2018-07-11T19:19:24.525Z,3.90
2018-07-11T19:21:56.790Z,4.78
2018-07-11T19:24:29.286Z,4.25
2018-07-11T19:27:06.386Z,4.95
2018-07-11T19:29:51.278Z,4.60
2018-07-11T19:32:30.835Z,5.75
2018-07-11T19:36:08.160Z,6.62
2018-07-11T19:38:40.216Z,5.65
2018-07-11T19:41:24.048Z,6.90
2018-07-11T19:43:59.572Z,6.53
2018-07-11T19:48:35.092Z,6.37
2018-07-11T19:51:13.186Z,5.95
2018-07-11T19:54:15.903Z,6.97
2018-07-11T19:56:44.902Z,7.10
2018-07-11T19:59:12.811Z,6.83
2018-07-11T20:01:43.586Z,6.55
2018-07-11T20:04:11.998Z,7.62
2018-07-11T20:06:39.601Z,7.53
2018-07-11T20:09:07.728Z,7.00
2018-07-11T20:11:36.866Z,7.50
2018-07-11T20:14:06.349Z,8.93
2018-07-11T20:16:34.024Z,7.37
2018-07-11T20:19:04.277Z,8.00
2018-07-11T20:21:32.355Z,10.68
2018-07-11T20:24:00.103Z,9.63
2018-07-11T20:26:27.617Z,9.30
2018-07-11T20:28:55.160Z,9.65
2018-07-11T20:31:23.165Z,11.08
2018-07-11T20:33:50.680Z,10.80
2018-07-11T20:36:18.577Z,11.10
2018-07-11T20:38:48.103Z,11.90
2018-07-11T20:41:15.993Z,10.43
2018-07-11T20:43:46.440Z,13.28
2018-07-11T20:46:15.446Z,11.57
2018-07-11T20:48:43.826Z,12.37
2018-07-11T20:51:11.403Z,14.78
2018-07-11T20:53:42.094Z,14.13
2018-07-11T20:56:09.725Z,12.58
2018-07-11T20:58:42.760Z,12.90
2018-07-11T21:01:15.984Z,14.40
2018-07-11T21:05:51.435Z,13.15
2018-07-11T21:08:22.120Z,16.30
2018-07-11T21:11:10.768Z,14.23
2018-07-11T21:14:17.929Z,15.38
2018-07-11T21:17:49.885Z,15.60
2018-07-11T21:20:19.802Z,13.85
2018-07-11T21:22:54.814Z,15.18
2018-07-11T21:25:22.567Z,14.90
2018-07-11T21:27:50.080Z,14.58
2018-07-11T21:30:17.519Z,14.28
2018-07-11T21:32:55.360Z,14.13
2018-07-11T21:35:22.934Z,15.85
2018-07-11T21:37:50.934Z,14.15
2018-07-11T21:40:18.439Z,15.32
2018-07-11T21:42:46.135Z,15.23
2018-07-11T21:45:13.887Z,14.15
2018-07-11T21:47:41.583Z,14.63
2018-07-11T21:50:09.124Z,16.45
2018-07-11T21:52:36.649Z,14.50
2018-07-11T21:55:05.896Z,15.32
2018-07-11T21:57:33.644Z,13.98
2018-07-11T22:00:02.327Z,15.75
2018-07-11T22:02:30.124Z,15.38
2018-07-11T22:04:57.814Z,17.00
2018-07-11T22:07:25.227Z,16.25
2018-07-11T22:09:53.453Z,17.37
2018-07-11T22:12:21.380Z,16.62
2018-07-11T22:14:48.933Z,16.00
2018-07-11T22:17:22.440Z,16.27
2018-07-11T22:19:50.750Z,15.60
2018-07-11T22:22:17.830Z,14.90
2018-07-11T22:24:44.834Z,16.80
2018-07-11T22:27:12.293Z,15.50
2018-07-11T22:29:45.512Z,16.27
2018-07-11T22:32:15.770Z,16.57
2018-07-11T22:34:42.683Z,16.27
2018-07-11T22:37:09.597Z,16.80
2018-07-11T22:39:36.567Z,15.70
2018-07-11T22:42:03.514Z,19.98
2018-07-11T22:44:30.477Z,17.85
2018-07-11T22:46:57.757Z,19.05
2018-07-11T22:49:24.710Z,17.25
2018-07-11T22:51:51.852Z,19.77
2018-07-11T22:54:21.026Z,17.00
2018-07-11T22:56:47.958Z,20.08
2018-07-11T22:59:17.055Z,18.40
2018-07-11T23:01:43.962Z,19.27
2018-07-11T23:04:10.953Z,18.50
2018-07-11T23:06:37.840Z,17.42
2018-07-11T23:09:14.932Z,19.85
2018-07-11T23:11:42.347Z,19.80
2018-07-11T23:14:09.240Z,17.60
2018-07-11T23:16:36.202Z,16.95
2018-07-11T23:19:03.168Z,19.12
2018-07-11T23:21:46.721Z,20.00
2018-07-11T23:24:15.406Z,18.30
2018-07-11T23:26:42.663Z,16.85
2018-07-11T23:29:09.631Z,21.35
2018-07-11T23:31:36.546Z,19.23
2018-07-11T23:34:03.467Z,19.57
2018-07-11T23:36:30.558Z,20.52
2018-07-11T23:38:58.658Z,18.30
2018-07-11T23:41:25.665Z,19.90
2018-07-11T23:43:54.075Z,19.77
2018-07-11T23:46:21.801Z,18.98
2018-07-11T23:48:48.743Z,17.60
2018-07-11T23:51:15.643Z,17.60
2018-07-11T23:53:42.613Z,19.32
2018-07-11T23:56:09.530Z,18.57
2018-07-11T23:58:38.805Z,20.52
